Time,TemperatureF,DewpointF,PressureIn,WindDirection,WindDirectionDegrees,WindSpeedMPH,WindSpeedGustMPH,Humidity,HourlyPrecipIn,Conditions,Clouds,dailyrainin,SolarRadiationWatts/m^2,SoftwareType,DateUTC
2013-04-25 00:03:00,48.0,47.2,29.91,South,180,3.0,8.0,97,0.00,,,0.00,0,Wunderground v.1.15,2013-04-25 04:03:00,
2013-04-25 00:07:00,48.1,47.3,29.91,SSW,195,3.0,3.0,97,0.00,,,0.00,0,Wunderground v.1.15,2013-04-25 04:07:00,
2013-04-25 00:12:00,48.2,47.4,29.91,South,185,4.0,5.0,97,0.00,,,0.00,0,Wunderground v.1.15,2013-04-25 04:12:00,
2013-04-25 00:22:00,48.5,47.7,29.91,South,187,4.0,8.0,97,0.00,,,0.00,0,Wunderground v.1.15,2013-04-25 04:22:00,
2013-04-25 00:28:00,48.6,47.8,29.91,SSW,207,4.0,4.0,97,0.00,,,0.00,0,Wunderground v.1.15,2013-04-25 04:28:00,
2013-04-25 00:33:00,48.7,47.9,29.91,South,191,4.0,7.0,97,0.00,,,0.00,0,Wunderground v.1.15,2013-04-25 04:33:00,
2013-04-25 00:42:00,48.9,48.1,29.91,SW,215,4.0,9.0,97,0.00,,,0.00,0,Wunderground v.1.15,2013-04-25 04:42:00,
2013-04-25 00:53:00,49.0,48.2,29.90,SSE,159,5.0,8.0,97,0.00,,,0.00,0,Wunderground v.1.15,2013-04-25 04:53:00,
2013-04-25 01:02:00,49.2,48.4,29.90,SW,236,6.0,9.0,97,0.00,,,0.00,0,Wunderground v.1.15,2013-04-25 05:02:00,
2013-04-25 01:12:00,49.3,48.5,29.90,SSW,200,5.0,9.0,97,0.00,,,0.00,0,Wunderground v.1.15,2013-04-25 05:12:00,
2013-04-25 01:23:00,49.6,48.8,29.90,South,175,5.0,11.0,97,0.00,,,0.00,0,Wunderground v.1.15,2013-04-25 05:23:00,
2013-04-25 01:32:00,49.6,48.8,29.90,SSW,194,6.0,11.0,97,0.00,,,0.00,0,Wunderground v.1.15,2013-04-25 05:32:00,
2013-04-25 01:42:00,49.5,48.7,29.89,SSW,205,6.0,11.0,97,0.00,,,0.00,0,Wunderground v.1.15,2013-04-25 05:42:00,
2013-04-25 01:48:00,49.4,48.6,29.89,SSW,192,5.0,5.0,97,0.00,,,0.00,0,Wunderground v.1.15,2013-04-25 05:48:00,
2013-04-25 01:57:00,49.4,48.6,29.89,SSW,197,5.0,5.0,97,0.00,,,0.00,0,Wunderground v.1.15,2013-04-25 05:57:00,
2013-04-25 02:07:00,49.3,48.5,29.89,SSW,202,5.0,5.0,97,0.00,,,0.00,0,Wunderground v.1.15,2013-04-25 06:07:00,
2013-04-25 02:17:00,49.4,48.6,29.90,SSW,200,6.0,11.0,97,0.00,,,0.00,0,Wunderground v.1.15,2013-04-25 06:17:00,
2013-04-25 02:23:00,49.4,48.6,29.90,SW,227,5.0,11.0,97,0.00,,,0.00,0,Wunderground v.1.15,2013-04-25 06:23:00,
2013-04-25 02:32:00,49.5,48.7,29.90,SSW,204,6.0,8.0,97,0.00,,,0.00,0,Wunderground v.1.15,2013-04-25 06:32:00,
2013-04-25 02:43:00,49.6,48.8,29.90,SW,219,6.0,10.0,97,0.00,,,0.00,0,Wunderground v.1.15,2013-04-25 06:43:00,
2013-04-25 02:53:00,49.9,49.1,29.90,SSW,198,7.0,16.0,97,0.00,,,0.00,0,Wunderground v.1.15,2013-04-25 06:53:00,
2013-04-25 03:02:00,50.0,50.0,29.90,SSW,203,6.0,7.0,100,0.00,,,0.00,0,Wunderground v.1.15,2013-04-25 07:02:00,
2013-04-25 03:12:00,49.9,48.8,29.90,SSW,193,7.0,16.0,96,0.00,,,0.00,0,Wunderground v.1.15,2013-04-25 07:12:00,
2013-04-25 03:18:00,49.9,48.8,29.90,South,186,6.0,6.0,96,0.00,,,0.00,0,Wunderground v.1.15,2013-04-25 07:18:00,
2013-04-25 03:27:00,49.9,48.8,29.89,South,182,6.0,15.0,96,0.00,,,0.00,0,Wunderground v.1.15,2013-04-25 07:27:00,
2013-04-25 03:37:00,49.7,48.6,29.89,SSW,209,6.0,6.0,96,0.00,,,0.00,0,Wunderground v.1.15,2013-04-25 07:37:00,
2013-04-25 03:43:00,49.6,48.5,29.90,SSW,194,6.0,15.0,96,0.00,,,0.00,0,Wunderground v.1.15,2013-04-25 07:43:00,
2013-04-25 03:52:00,49.7,48.6,29.90,SW,217,7.0,15.0,96,0.00,,,0.00,0,Wunderground v.1.15,2013-04-25 07:52:00,
2013-04-25 04:02:00,49.9,48.8,29.90,SSW,198,7.0,15.0,96,0.00,,,0.00,0,Wunderground v.1.15,2013-04-25 08:02:00,
2013-04-25 04:13:00,50.0,48.9,29.91,South,186,7.0,15.0,96,0.00,,,0.00,0,Wunderground v.1.15,2013-04-25 08:13:00,
2013-04-25 04:22:00,50.3,49.2,29.92,SW,216,6.0,15.0,96,0.00,,,0.00,0,Wunderground v.1.15,2013-04-25 08:22:00,
2013-04-25 04:32:00,50.6,49.5,29.93,SW,223,5.0,14.0,96,0.00,,,0.00,0,Wunderground v.1.15,2013-04-25 08:32:00,
2013-04-25 04:38:00,50.8,49.7,29.93,SW,219,5.0,14.0,96,0.00,,,0.00,0,Wunderground v.1.15,2013-04-25 08:38:00,
2013-04-25 04:47:00,51.2,50.1,29.93,SSW,207,5.0,5.0,96,0.00,,,0.00,0,Wunderground v.1.15,2013-04-25 08:47:00,
2013-04-25 04:57:00,51.7,50.6,29.95,SSW,208,5.0,12.0,96,0.00,,,0.00,0,Wunderground v.1.15,2013-04-25 08:57:00,
2013-04-25 05:08:00,52.1,51.0,29.94,WSW,238,5.0,5.0,96,0.00,,,0.00,0,Wunderground v.1.15,2013-04-25 09:08:00,
2013-04-25 05:13:00,52.1,50.7,29.95,WSW,257,3.0,12.0,95,0.00,,,0.00,0,Wunderground v.1.15,2013-04-25 09:13:00,
2013-04-25 05:22:00,52.3,50.9,29.96,West,259,5.0,12.0,95,0.00,,,0.00,0,Wunderground v.1.15,2013-04-25 09:22:00,
2013-04-25 05:32:00,52.4,50.4,29.97,WSW,255,6.0,10.0,93,0.00,,,0.00,0,Wunderground v.1.15,2013-04-25 09:32:00,
2013-04-25 05:38:00,52.5,49.9,29.97,West,267,7.0,10.0,91,0.00,,,0.00,0,Wunderground v.1.15,2013-04-25 09:38:00,
2013-04-25 05:48:00,52.5,47.2,29.98,WNW,294,8.0,10.0,82,0.00,,,0.00,0,Wunderground v.1.15,2013-04-25 09:48:00,
2013-04-25 05:57:00,52.5,44.1,29.99,WSW,257,8.0,8.0,73,0.00,,,0.00,0,Wunderground v.1.15,2013-04-25 09:57:00,
2013-04-25 06:07:00,52.4,42.5,29.99,West,267,6.0,6.0,69,0.00,,,0.00,5,Wunderground v.1.15,2013-04-25 10:07:00,
2013-04-25 06:12:00,52.3,42.0,30.01,West,263,7.0,7.0,68,0.00,,,0.00,5,Wunderground v.1.15,2013-04-25 10:12:00,
2013-04-25 06:22:00,52.1,41.5,30.01,West,261,7.0,16.0,67,0.00,,,0.00,11,Wunderground v.1.15,2013-04-25 10:22:00,
2013-04-25 06:33:00,51.9,40.9,30.02,SW,227,7.0,9.0,66,0.00,,,0.00,46,Wunderground v.1.15,2013-04-25 10:33:00,
2013-04-25 06:42:00,51.9,40.9,30.02,West,265,6.0,16.0,66,0.00,,,0.00,23,Wunderground v.1.15,2013-04-25 10:42:00,
2013-04-25 06:52:00,51.8,40.8,30.03,West,277,7.0,17.0,66,0.00,,,0.00,16,Wunderground v.1.15,2013-04-25 10:52:00,
2013-04-25 06:58:00,51.7,40.7,30.04,WSW,255,6.0,17.0,66,0.00,,,0.00,14,Wunderground v.1.15,2013-04-25 10:58:00,
2013-04-25 07:07:00,51.5,41.7,30.06,WSW,251,6.0,17.0,69,0.00,,,0.00,19,Wunderground v.1.15,2013-04-25 11:07:00,
2013-04-25 07:18:00,49.8,42.5,30.07,West,274,6.0,6.0,76,0.00,,,0.01,32,Wunderground v.1.15,2013-04-25 11:18:00,
2013-04-25 07:27:00,48.6,43.0,30.06,WNW,286,5.0,13.0,81,0.06,,,0.02,47,Wunderground v.1.15,2013-04-25 11:27:00,
2013-04-25 07:37:00,47.9,43.3,30.08,WNW,288,6.0,6.0,84,0.05,,,0.02,54,Wunderground v.1.15,2013-04-25 11:37:00,
2013-04-25 07:43:00,47.7,43.7,30.08,WNW,296,4.0,13.0,86,0.04,,,0.02,77,Wunderground v.1.15,2013-04-25 11:43:00,
2013-04-25 07:52:00,47.5,43.5,30.09,WNW,294,4.0,13.0,86,0.00,,,0.02,56,Wunderground v.1.15,2013-04-25 11:52:00,
2013-04-25 08:02:00,47.4,43.7,30.09,NW,318,2.0,11.0,87,0.00,,,0.02,44,Wunderground v.1.15,2013-04-25 12:02:00,
2013-04-25 08:08:00,47.3,43.6,30.09,WNW,283,3.0,11.0,87,0.00,,,0.02,77,Wunderground v.1.15,2013-04-25 12:08:00,
2013-04-25 08:17:00,47.6,43.9,30.08,WNW,286,3.0,11.0,87,0.00,,,0.02,141,Wunderground v.1.15,2013-04-25 12:17:00,
2013-04-25 08:27:00,47.8,43.8,30.09,WNW,292,4.0,4.0,86,0.00,,,0.02,114,Wunderground v.1.15,2013-04-25 12:27:00,
2013-04-25 08:38:00,48.3,44.0,30.09,NW,310,4.0,7.0,85,0.00,,,0.02,146,Wunderground v.1.15,2013-04-25 12:38:00,
2013-04-25 08:47:00,49.1,43.2,30.11,WNW,294,5.0,9.0,80,0.00,,,0.02,345,Wunderground v.1.15,2013-04-25 12:47:00,
2013-04-25 08:57:00,49.4,41.5,30.12,NW,308,6.0,6.0,74,0.00,,,0.02,176,Wunderground v.1.15,2013-04-25 12:57:00,
2013-04-25 09:03:00,49.5,40.8,30.12,West,267,6.0,10.0,72,0.00,,,0.02,220,Wunderground v.1.15,2013-04-25 13:03:00,
2013-04-25 09:12:00,49.8,40.4,30.11,West,280,7.0,10.0,70,0.00,,,0.02,255,Wunderground v.1.15,2013-04-25 13:12:00,
2013-04-25 09:22:00,50.0,39.5,30.10,NW,308,7.0,14.0,67,0.00,,,0.02,279,Wunderground v.1.15,2013-04-25 13:22:00,
2013-04-25 09:28:00,50.0,39.5,30.11,NW,311,7.0,7.0,67,0.00,,,0.02,264,Wunderground v.1.15,2013-04-25 13:28:00,
2013-04-25 09:37:00,50.9,38.7,30.10,West,271,7.0,14.0,63,0.00,,,0.02,666,Wunderground v.1.15,2013-04-25 13:37:00,
2013-04-25 09:47:00,51.9,38.9,30.12,WNW,294,6.0,6.0,61,0.00,,,0.02,694,Wunderground v.1.15,2013-04-25 13:47:00,
2013-04-25 09:57:00,52.4,38.5,30.11,WNW,287,7.0,14.0,59,0.00,,,0.02,712,Wunderground v.1.15,2013-04-25 13:57:00,
2013-04-25 10:07:00,53.0,38.2,30.12,North,5,8.0,8.0,57,0.00,,,0.02,747,Wunderground v.1.15,2013-04-25 14:07:00,
2013-04-25 10:17:00,53.3,38.0,30.12,NW,319,7.0,7.0,56,0.00,,,0.02,773,Wunderground v.1.15,2013-04-25 14:17:00,
2013-04-25 10:27:00,53.9,38.1,30.13,WNW,291,6.0,16.0,55,0.00,,,0.02,791,Wunderground v.1.15,2013-04-25 14:27:00,
2013-04-25 10:32:00,53.6,37.3,30.13,West,275,7.0,16.0,54,0.00,,,0.02,807,Wunderground v.1.15,2013-04-25 14:32:00,
2013-04-25 10:42:00,53.9,37.1,30.13,NW,322,7.0,16.0,53,0.00,,,0.02,824,Wunderground v.1.15,2013-04-25 14:42:00,
2013-04-25 10:52:00,54.4,36.6,30.14,NW,309,8.0,9.0,51,0.00,,,0.02,849,Wunderground v.1.15,2013-04-25 14:52:00,
2013-04-25 11:02:00,55.1,37.3,30.14,WSW,254,8.0,18.0,51,0.00,,,0.02,861,Wunderground v.1.15,2013-04-25 15:02:00,
2013-04-25 11:12:00,55.1,36.3,30.14,West,275,7.0,18.0,49,0.00,,,0.02,881,Wunderground v.1.15,2013-04-25 15:12:00,
2013-04-25 11:22:00,55.4,36.5,30.14,WNW,302,8.0,17.0,49,0.00,,,0.02,896,Wunderground v.1.15,2013-04-25 15:22:00,
2013-04-25 11:32:00,55.7,36.3,30.14,WSW,258,7.0,8.0,48,0.00,,,0.02,911,Wunderground v.1.15,2013-04-25 15:32:00,
2013-04-25 11:42:00,56.0,36.0,30.14,WSW,241,8.0,18.0,47,0.00,,,0.02,916,Wunderground v.1.15,2013-04-25 15:42:00,
2013-04-25 11:52:00,56.1,36.1,30.15,West,278,8.0,21.0,47,0.00,,,0.02,932,Wunderground v.1.15,2013-04-25 15:52:00,
2013-04-25 12:02:00,56.5,34.8,30.15,WNW,294,7.0,21.0,44,0.00,,,0.02,940,Wunderground v.1.15,2013-04-25 16:02:00,
2013-04-25 12:12:00,57.0,35.3,30.15,WNW,286,8.0,8.0,44,0.00,,,0.02,944,Wunderground v.1.15,2013-04-25 16:12:00,
2013-04-25 12:17:00,57.6,35.8,30.15,WSW,244,7.0,7.0,44,0.00,,,0.02,949,Wunderground v.1.15,2013-04-25 16:17:00,
2013-04-25 12:27:00,57.1,34.8,30.15,WNW,284,8.0,8.0,43,0.00,,,0.02,953,Wunderground v.1.15,2013-04-25 16:27:00,
2013-04-25 12:37:00,58.7,35.7,30.15,NW,304,7.0,7.0,42,0.00,,,0.02,956,Wunderground v.1.15,2013-04-25 16:37:00,
2013-04-25 12:47:00,58.6,35.6,30.15,NNE,25,6.0,6.0,42,0.00,,,0.02,956,Wunderground v.1.15,2013-04-25 16:47:00,
2013-04-25 12:57:00,58.7,33.8,30.15,West,281,6.0,6.0,39,0.00,,,0.02,958,Wunderground v.1.15,2013-04-25 16:57:00,
2013-04-25 13:07:00,59.7,34.0,30.15,SW,219,6.0,6.0,38,0.00,,,0.02,956,Wunderground v.1.15,2013-04-25 17:07:00,
2013-04-25 13:17:00,59.2,34.2,30.14,NNW,337,6.0,6.0,39,0.00,,,0.02,921,Wunderground v.1.15,2013-04-25 17:17:00,
2013-04-25 13:27:00,59.1,33.5,30.15,NW,309,5.0,5.0,38,0.00,,,0.02,879,Wunderground v.1.15,2013-04-25 17:27:00,
2013-04-25 13:37:00,60.3,33.9,30.15,WNW,290,4.0,15.0,37,0.00,,,0.02,814,Wunderground v.1.15,2013-04-25 17:37:00,
2013-04-25 13:47:00,60.0,34.3,30.14,WNW,286,5.0,5.0,38,0.00,,,0.02,895,Wunderground v.1.15,2013-04-25 17:47:00,
2013-04-25 13:57:00,60.8,33.7,30.14,West,269,5.0,14.0,36,0.00,,,0.02,940,Wunderground v.1.15,2013-04-25 17:57:00,
2013-04-25 14:07:00,59.7,32.7,30.14,WNW,289,5.0,5.0,36,0.00,,,0.02,657,Wunderground v.1.15,2013-04-25 18:07:00,
2013-04-25 14:17:00,60.1,31.6,30.14,NW,316,5.0,5.0,34,0.00,,,0.02,722,Wunderground v.1.15,2013-04-25 18:17:00,
2013-04-25 14:27:00,61.0,32.4,30.14,WNW,291,5.0,5.0,34,0.00,,,0.02,765,Wunderground v.1.15,2013-04-25 18:27:00,
2013-04-25 14:37:00,61.0,33.1,30.14,NNE,28,4.0,4.0,35,0.00,,,0.02,877,Wunderground v.1.15,2013-04-25 18:37:00,
2013-04-25 14:42:00,62.0,33.3,30.14,WNW,298,4.0,12.0,34,0.00,,,0.02,842,Wunderground v.1.15,2013-04-25 18:42:00,
2013-04-25 14:52:00,62.3,32.8,30.14,NW,316,4.0,12.0,33,0.00,,,0.02,853,Wunderground v.1.15,2013-04-25 18:52:00,
2013-04-25 15:02:00,63.3,32.9,30.14,West,279,5.0,12.0,32,0.00,,,0.02,816,Wunderground v.1.15,2013-04-25 19:02:00,
2013-04-25 15:12:00,63.1,31.1,30.14,NNW,327,3.0,12.0,30,0.00,,,0.02,802,Wunderground v.1.15,2013-04-25 19:12:00,
2013-04-25 15:22:00,58.6,39.0,30.14,SE,138,5.0,18.0,48,0.00,,,0.02,765,Wunderground v.1.15,2013-04-25 19:22:00,
2013-04-25 15:32:00,57.1,39.6,30.14,South,177,7.0,18.0,52,0.00,,,0.02,752,Wunderground v.1.15,2013-04-25 19:32:00,
2013-04-25 15:42:00,56.2,40.7,30.14,SSW,194,7.0,7.0,56,0.00,,,0.02,726,Wunderground v.1.15,2013-04-25 19:42:00,
2013-04-25 15:52:00,56.0,41.4,30.14,SSW,205,8.0,18.0,58,0.00,,,0.02,700,Wunderground v.1.15,2013-04-25 19:52:00,
2013-04-25 16:02:00,55.3,41.6,30.15,SW,222,8.0,14.0,60,0.00,,,0.02,671,Wunderground v.1.15,2013-04-25 20:02:00,
2013-04-25 16:12:00,54.8,40.3,30.15,South,189,8.0,14.0,58,0.00,,,0.02,642,Wunderground v.1.15,2013-04-25 20:12:00,
2013-04-25 16:22:00,55.0,40.0,30.15,SW,219,9.0,17.0,57,0.00,,,0.02,606,Wunderground v.1.15,2013-04-25 20:22:00,
2013-04-25 16:27:00,54.9,39.5,30.15,SSW,203,10.0,15.0,56,0.00,,,0.02,592,Wunderground v.1.15,2013-04-25 20:27:00,
2013-04-25 16:37:00,55.3,38.4,30.15,South,180,9.0,9.0,53,0.00,,,0.02,563,Wunderground v.1.15,2013-04-25 20:37:00,
2013-04-25 16:47:00,56.0,37.6,30.15,WSW,239,8.0,15.0,50,0.00,,,0.02,529,Wunderground v.1.15,2013-04-25 20:47:00,
2013-04-25 16:57:00,56.3,37.9,30.15,SW,225,9.0,19.0,50,0.00,,,0.02,492,Wunderground v.1.15,2013-04-25 20:57:00,
2013-04-25 17:07:00,56.2,37.8,30.16,WSW,251,8.0,8.0,50,0.00,,,0.02,457,Wunderground v.1.15,2013-04-25 21:07:00,
2013-04-25 17:12:00,56.4,38.0,30.16,SSW,212,7.0,19.0,50,0.00,,,0.02,438,Wunderground v.1.15,2013-04-25 21:12:00,
2013-04-25 17:22:00,56.0,37.6,30.16,SW,214,7.0,19.0,50,0.00,,,0.02,404,Wunderground v.1.15,2013-04-25 21:22:00,
2013-04-25 17:32:00,55.7,38.3,30.16,South,177,7.0,16.0,52,0.00,,,0.02,373,Wunderground v.1.15,2013-04-25 21:32:00,
2013-04-25 17:42:00,55.2,37.4,30.16,SSW,199,8.0,16.0,51,0.00,,,0.02,332,Wunderground v.1.15,2013-04-25 21:42:00,
2013-04-25 17:52:00,55.8,37.9,30.16,SW,236,7.0,15.0,51,0.00,,,0.02,306,Wunderground v.1.15,2013-04-25 21:52:00,
2013-04-25 18:02:00,54.7,37.9,30.17,SSW,213,7.0,15.0,53,0.00,,,0.02,267,Wunderground v.1.15,2013-04-25 22:02:00,
2013-04-25 18:12:00,54.4,38.1,30.16,South,186,6.0,15.0,54,0.00,,,0.02,229,Wunderground v.1.15,2013-04-25 22:12:00,
2013-04-25 18:17:00,54.7,37.4,30.17,South,181,6.0,15.0,52,0.00,,,0.02,209,Wunderground v.1.15,2013-04-25 22:17:00,
2013-04-25 18:27:00,54.6,37.3,30.17,SSW,207,6.0,13.0,52,0.00,,,0.02,171,Wunderground v.1.15,2013-04-25 22:27:00,
2013-04-25 18:37:00,54.0,37.7,30.17,SW,223,6.0,13.0,54,0.00,,,0.02,130,Wunderground v.1.15,2013-04-25 22:37:00,
2013-04-25 18:47:00,53.5,37.7,30.17,SSW,197,6.0,6.0,55,0.00,,,0.02,95,Wunderground v.1.15,2013-04-25 22:47:00,
2013-04-25 18:57:00,53.2,37.9,30.17,South,180,5.0,5.0,56,0.00,,,0.02,65,Wunderground v.1.15,2013-04-25 22:57:00,
2013-04-25 19:07:00,52.6,38.2,30.18,SSE,167,5.0,5.0,58,0.00,,,0.02,40,Wunderground v.1.15,2013-04-25 23:07:00,
2013-04-25 19:17:00,51.9,38.9,30.18,SSW,209,5.0,5.0,61,0.00,,,0.02,23,Wunderground v.1.15,2013-04-25 23:17:00,
2013-04-25 19:27:00,51.8,37.9,30.18,SSW,208,4.0,10.0,59,0.00,,,0.02,16,Wunderground v.1.15,2013-04-25 23:27:00,
2013-04-25 19:37:00,51.4,38.4,30.19,SSW,204,5.0,5.0,61,0.00,,,0.02,9,Wunderground v.1.15,2013-04-25 23:37:00,
2013-04-25 19:47:00,50.9,39.1,30.19,SSW,197,4.0,10.0,64,0.00,,,0.02,0,Wunderground v.1.15,2013-04-25 23:47:00,
2013-04-25 19:57:00,50.3,39.8,30.19,South,183,4.0,8.0,67,0.00,,,0.02,0,Wunderground v.1.15,2013-04-25 23:57:00,
2013-04-25 20:02:00,50.1,39.9,30.19,SSW,203,4.0,8.0,68,0.00,,,0.02,0,Wunderground v.1.15,2013-04-26 00:02:00,
2013-04-25 20:12:00,49.6,40.6,30.20,South,171,3.0,8.0,71,0.00,,,0.02,0,Wunderground v.1.15,2013-04-26 00:12:00,
2013-04-25 20:22:00,49.4,40.7,30.20,South,182,3.0,7.0,72,0.00,,,0.02,0,Wunderground v.1.15,2013-04-26 00:22:00,
2013-04-25 20:32:00,49.2,40.6,30.20,SSW,202,4.0,5.0,72,0.00,,,0.02,0,Wunderground v.1.15,2013-04-26 00:32:00,
2013-04-25 20:42:00,49.0,41.4,30.21,SW,214,4.0,7.0,75,0.00,,,0.02,0,Wunderground v.1.15,2013-04-26 00:42:00,
2013-04-25 20:47:00,48.8,41.2,30.21,South,186,4.0,4.0,75,0.00,,,0.02,0,Wunderground v.1.15,2013-04-26 00:47:00,
2013-04-25 20:57:00,48.6,41.4,30.22,SSE,158,3.0,3.0,76,0.00,,,0.02,0,Wunderground v.1.15,2013-04-26 00:57:00,
2013-04-25 21:07:00,48.8,41.9,30.22,SSW,194,4.0,4.0,77,0.00,,,0.02,0,Wunderground v.1.15,2013-04-26 01:07:00,
2013-04-25 21:17:00,48.9,42.0,30.23,SW,215,6.0,8.0,77,0.00,,,0.02,0,Wunderground v.1.15,2013-04-26 01:17:00,
2013-04-25 21:27:00,49.1,42.5,30.23,SW,232,7.0,7.0,78,0.00,,,0.02,0,Wunderground v.1.15,2013-04-26 01:27:00,
2013-04-25 21:37:00,49.2,42.3,30.24,SSW,213,7.0,7.0,77,0.00,,,0.02,0,Wunderground v.1.15,2013-04-26 01:37:00,
2013-04-25 21:47:00,49.1,42.9,30.24,SSW,213,6.0,11.0,79,0.00,,,0.02,0,Wunderground v.1.15,2013-04-26 01:47:00,
2013-04-25 21:57:00,49.0,43.4,30.24,SSW,209,4.0,13.0,81,0.00,,,0.02,0,Wunderground v.1.15,2013-04-26 01:57:00,
2013-04-25 22:02:00,49.2,43.6,30.24,SSW,213,4.0,13.0,81,0.00,,,0.02,0,Wunderground v.1.15,2013-04-26 02:02:00,
2013-04-25 22:12:00,49.4,43.5,30.24,SSW,211,5.0,13.0,80,0.00,,,0.02,0,Wunderground v.1.15,2013-04-26 02:12:00,
2013-04-25 22:22:00,49.4,43.5,30.24,SSW,209,6.0,13.0,80,0.00,,,0.02,0,Wunderground v.1.15,2013-04-26 02:22:00,
2013-04-25 22:27:00,49.5,43.6,30.25,SSW,204,7.0,7.0,80,0.00,,,0.02,0,Wunderground v.1.15,2013-04-26 02:27:00,
2013-04-25 22:37:00,49.5,43.6,30.25,SW,227,5.0,9.0,80,0.00,,,0.02,0,Wunderground v.1.15,2013-04-26 02:37:00,
2013-04-25 22:47:00,49.5,43.6,30.25,WSW,240,5.0,5.0,80,0.00,,,0.02,0,Wunderground v.1.15,2013-04-26 02:47:00,
2013-04-25 22:57:00,49.5,43.3,30.25,SSW,211,5.0,12.0,79,0.00,,,0.02,0,Wunderground v.1.15,2013-04-26 02:57:00,
2013-04-25 23:07:00,49.4,42.8,30.25,SW,222,4.0,4.0,78,0.00,,,0.02,0,Wunderground v.1.15,2013-04-26 03:07:00,
2013-04-25 23:12:00,49.0,42.4,30.25,SW,224,3.0,12.0,78,0.00,,,0.02,0,Wunderground v.1.15,2013-04-26 03:12:00,
2013-04-25 23:22:00,48.7,42.1,30.25,SW,235,3.0,9.0,78,0.00,,,0.02,0,Wunderground v.1.15,2013-04-26 03:22:00,
2013-04-25 23:32:00,48.2,42.0,30.25,WSW,238,2.0,9.0,79,0.00,,,0.02,0,Wunderground v.1.15,2013-04-26 03:32:00,
2013-04-25 23:37:00,48.0,41.8,30.25,WSW,238,4.0,9.0,79,0.00,,,0.02,0,Wunderground v.1.15,2013-04-26 03:37:00,
2013-04-25 23:47:00,47.6,41.7,30.26,SW,232,3.0,9.0,80,0.00,,,0.02,0,Wunderground v.1.15,2013-04-26 03:47:00,
2013-04-25 23:57:00,47.6,41.7,30.26,SW,232,4.0,6.0,80,0.00,,,0.02,0,Wunderground v.1.15,2013-04-26 03:57:00,